Webcam Flughafen St.Gallen-Altenrhein

Live-Bilder und Zeitraffer LSZR / ACH.

 

Live aus Altenrhein
LIVE
LSZR 230020Z AUTO 27012KT 230V290 6000 -RA FEW100 04/04 Q0996
Zeitraffer heute
2021-01-23 00:14:03
LSZR 222250Z AUTO 29008KT 8000 -RA FEW028 04/04 Q0993